Time;durP1;ratioP1;P1;durP2;ratioP2;P2;SDS_P1;SDS_P2;PMS_P1;PMS_P2;Temp;Humidity;BMP_temperature;BMP_pressure;BME280_temperature;BME280_humidity;BME280_pressure;Samples;Min_cycle;Max_cycle;Signal;HPM_P1;HPM_P2
2023/06/30 00:00:25;;;;;;;10.17;6.03;;;22.10;99.90;;;;;;5133349;27;20209;-67
2023/06/30 00:02:51;;;;;;;8.07;5.67;;;22.00;99.90;;;;;;5152381;27;21310;-68
2023/06/30 00:05:18;;;;;;;8.80;5.97;;;22.10;99.90;;;;;;5152313;27;20422;-67
2023/06/30 00:07:44;;;;;;;10.87;5.87;;;22.00;99.90;;;;;;5133360;27;20419;-67
2023/06/30 00:10:10;;;;;;;11.20;5.97;;;22.00;99.90;;;;;;5151691;27;20438;-67
2023/06/30 00:12:35;;;;;;;11.90;6.40;;;22.10;99.90;;;;;;5133398;27;20463;-68
2023/06/30 00:15:02;;;;;;;14.63;6.50;;;22.10;99.90;;;;;;5152046;27;20423;-68
2023/06/30 00:17:28;;;;;;;16.20;6.47;;;22.10;99.90;;;;;;5152025;27;20186;-66
2023/06/30 00:19:53;;;;;;;15.63;7.77;;;22.00;99.90;;;;;;5151730;27;21004;-67
2023/06/30 00:22:21;;;;;;;10.37;6.80;;;22.00;99.90;;;;;;5151650;27;20251;-67
2023/06/30 00:24:53;;;;;;;13.23;7.53;;;21.90;99.90;;;;;;5151293;27;20181;-67
2023/06/30 00:27:18;;;;;;;14.73;8.80;;;21.90;99.90;;;;;;5150205;27;20504;-67
2023/06/30 00:29:44;;;;;;;13.50;7.90;;;21.90;99.90;;;;;;5132127;27;20434;-67
2023/06/30 00:32:10;;;;;;;14.40;8.30;;;21.90;99.90;;;;;;5150591;27;20659;-67
2023/06/30 00:34:35;;;;;;;11.00;8.47;;;21.90;99.90;;;;;;5150811;27;20272;-67
2023/06/30 00:37:01;;;;;;;15.37;8.60;;;21.70;99.90;;;;;;5150683;27;20185;-67
2023/06/30 00:39:26;;;;;;;13.30;7.50;;;21.50;99.90;;;;;;5150591;27;20316;-67
2023/06/30 00:41:52;;;;;;;16.90;8.00;;;21.50;99.90;;;;;;5150715;27;20216;-66
2023/06/30 00:44:17;;;;;;;15.67;8.80;;;21.50;99.90;;;;;;5150875;27;20758;-68
2023/06/30 00:46:43;;;;;;;14.63;8.67;;;21.50;99.90;;;;;;5132405;27;20178;-67
2023/06/30 00:49:09;;;;;;;19.30;9.20;;;21.60;99.90;;;;;;5150641;27;20225;-66
2023/06/30 00:51:34;;;;;;;14.23;9.33;;;21.60;99.90;;;;;;5150798;27;20184;-66
2023/06/30 00:54:00;;;;;;;16.00;9.43;;;21.50;99.90;;;;;;5150701;27;20685;-67
2023/06/30 00:56:26;;;;;;;11.63;8.47;;;21.30;99.90;;;;;;5150387;27;20189;-67
2023/06/30 00:58:52;;;;;;;15.27;9.03;;;21.40;99.90;;;;;;5150299;27;20179;-67
2023/06/30 01:01:48;;;;;;;13.70;8.93;;;21.40;99.90;;;;;;5131534;27;20351;-67
2023/06/30 01:04:27;;;;;;;13.73;9.00;;;21.40;99.90;;;;;;5150139;27;20513;-67
2023/06/30 01:07:03;;;;;;;15.60;10.00;;;21.40;99.90;;;;;;5150127;27;20431;-67
2023/06/30 01:09:37;;;;;;;17.10;9.80;;;21.40;99.90;;;;;;5150149;27;21231;-67
2023/06/30 01:12:03;;;;;;;14.50;9.50;;;21.40;99.90;;;;;;5150181;27;20410;-66
2023/06/30 01:14:30;;;;;;;16.07;10.43;;;21.30;99.90;;;;;;5149959;27;20526;-66
2023/06/30 01:16:56;;;;;;;15.60;10.00;;;21.30;99.90;;;;;;5150144;27;20420;-67
2023/06/30 01:19:30;;;;;;;16.23;9.97;;;21.30;99.90;;;;;;5149896;27;20471;-66
2023/06/30 01:22:02;;;;;;;17.90;11.50;;;21.30;99.90;;;;;;5149836;27;20512;-67
2023/06/30 01:24:34;;;;;;;16.80;10.87;;;21.30;99.90;;;;;;5131372;27;20434;-67
2023/06/30 01:27:01;;;;;;;16.30;11.43;;;21.20;99.90;;;;;;5149943;27;20957;-67
2023/06/30 01:29:27;;;;;;;25.70;12.20;;;21.10;99.90;;;;;;5149853;27;20415;-68
2023/06/30 01:31:53;;;;;;;20.97;12.80;;;21.00;99.90;;;;;;5149925;27;20426;-68
2023/06/30 01:34:18;;;;;;;22.70;12.83;;;21.00;99.90;;;;;;5131180;27;20418;-68
2023/06/30 01:36:44;;;;;;;19.33;12.27;;;21.00;99.90;;;;;;5149835;27;20649;-67
2023/06/30 01:39:10;;;;;;;18.17;11.70;;;21.00;99.90;;;;;;5152442;27;20186;-67
2023/06/30 01:41:36;;;;;;;20.90;12.87;;;21.00;99.90;;;;;;5153413;27;20216;-67
2023/06/30 01:44:02;;;;;;;16.83;12.30;;;20.90;99.90;;;;;;5134578;27;20258;-67
2023/06/30 01:46:28;;;;;;;25.50;12.73;;;20.90;99.90;;;;;;5134485;27;20453;-68
2023/06/30 01:48:55;;;;;;;21.20;14.10;;;20.70;99.90;;;;;;5153062;27;20446;-68
2023/06/30 01:51:20;;;;;;;26.80;13.30;;;20.70;99.90;;;;;;5152913;27;20253;-67
2023/06/30 01:53:46;;;;;;;23.60;12.37;;;20.70;99.90;;;;;;5134170;27;20420;-68
2023/06/30 01:56:11;;;;;;;18.17;13.10;;;20.60;99.90;;;;;;5134393;27;20184;-67
2023/06/30 01:58:37;;;;;;;23.73;14.77;;;20.60;99.90;;;;;;5152842;27;20193;-67
2023/06/30 02:01:02;;;;;;;23.10;13.17;;;20.40;99.90;;;;;;5134048;27;20212;-67
2023/06/30 02:03:29;;;;;;;20.20;14.20;;;20.30;99.90;;;;;;5152943;27;20662;-67
2023/06/30 02:05:55;;;;;;;22.07;14.80;;;20.30;99.90;;;;;;5152630;27;20196;-68
2023/06/30 02:08:20;;;;;;;21.80;13.17;;;20.20;99.90;;;;;;5152788;27;20466;-67
2023/06/30 02:10:46;;;;;;;25.60;14.50;;;20.30;99.90;;;;;;5134302;27;20204;-68
2023/06/30 02:13:11;;;;;;;20.10;13.70;;;20.20;99.90;;;;;;5152709;27;20682;-67
2023/06/30 02:15:37;;;;;;;24.13;15.07;;;20.20;99.90;;;;;;5133897;27;20192;-68
2023/06/30 02:18:03;;;;;;;23.60;15.30;;;20.20;99.90;;;;;;5152623;27;20345;-67
2023/06/30 02:20:28;;;;;;;30.90;15.80;;;20.20;99.90;;;;;;5152210;27;20594;-67
2023/06/30 02:22:54;;;;;;;23.83;15.13;;;20.10;99.90;;;;;;5152654;27;20442;-68
2023/06/30 02:25:20;;;;;;;31.03;16.67;;;20.10;99.90;;;;;;5153083;27;20535;-67
2023/06/30 02:27:45;;;;;;;24.20;16.93;;;20.10;99.90;;;;;;5134021;27;20291;-68
2023/06/30 02:30:12;;;;;;;26.00;16.70;;;20.10;99.90;;;;;;5152719;27;20453;-67
2023/06/30 02:32:38;;;;;;;24.30;16.23;;;20.00;99.90;;;;;;5152719;27;20195;-67
2023/06/30 02:35:06;;;;;;;27.73;18.20;;;19.90;99.90;;;;;;5152462;27;20801;-67
2023/06/30 02:37:31;;;;;;;23.40;15.20;;;19.90;99.90;;;;;;5133744;27;20307;-67
2023/06/30 02:39:57;;;;;;;26.40;17.47;;;19.90;99.90;;;;;;5152091;27;21015;-67
2023/06/30 02:42:22;;;;;;;24.93;15.90;;;20.00;99.90;;;;;;5152414;27;20217;-67
2023/06/30 02:44:48;;;;;;;26.03;17.47;;;20.00;99.90;;;;;;5152211;27;20539;-67
2023/06/30 02:47:13;;;;;;;23.90;15.70;;;20.00;99.90;;;;;;5152292;27;20246;-67
2023/06/30 02:49:39;;;;;;;24.20;15.90;;;20.00;99.90;;;;;;5132583;27;20204;-67
2023/06/30 02:52:05;;;;;;;23.30;16.10;;;19.90;99.90;;;;;;5152084;27;20191;-68
2023/06/30 02:54:31;;;;;;;27.53;16.50;;;19.80;99.90;;;;;;5133813;27;20321;-67
2023/06/30 02:56:57;;;;;;;24.07;16.30;;;19.80;99.90;;;;;;5152719;27;20498;-68
2023/06/30 02:59:22;;;;;;;24.40;16.50;;;19.90;99.90;;;;;;5116380;27;20184;-66
2023/06/30 03:01:48;;;;;;;27.57;16.70;;;19.80;99.90;;;;;;5152488;27;20223;-66
2023/06/30 03:04:14;;;;;;;28.30;16.70;;;19.90;99.90;;;;;;5152680;27;20191;-66
2023/06/30 03:06:39;;;;;;;24.83;15.40;;;20.00;99.90;;;;;;5152507;27;20565;-67
2023/06/30 03:09:05;;;;;;;28.40;17.33;;;20.10;99.90;;;;;;5133726;27;20810;-67
2023/06/30 03:11:30;;;;;;;25.03;16.00;;;20.10;99.90;;;;;;5152159;27;20208;-66
2023/06/30 03:13:56;;;;;;;25.40;16.47;;;20.10;99.90;;;;;;5152306;27;20196;-66
2023/06/30 03:16:22;;;;;;;29.70;14.60;;;20.20;99.90;;;;;;5152354;27;20189;-66
2023/06/30 03:18:47;;;;;;;23.37;14.40;;;20.20;99.90;;;;;;5133461;27;20208;-67
2023/06/30 03:21:13;;;;;;;20.13;14.80;;;20.20;99.90;;;;;;5152500;27;20213;-67
2023/06/30 03:23:40;;;;;;;21.73;14.53;;;20.10;99.90;;;;;;5133321;27;20665;-68
2023/06/30 03:26:05;;;;;;;23.93;13.77;;;20.00;99.90;;;;;;5133071;27;20201;-68
2023/06/30 03:28:31;;;;;;;26.30;15.97;;;20.00;99.90;;;;;;5152107;27;20433;-66
2023/06/30 03:30:57;;;;;;;25.73;15.70;;;19.90;99.90;;;;;;5151881;27;20204;-66
2023/06/30 03:33:22;;;;;;;19.57;13.80;;;19.90;99.90;;;;;;5151958;27;20698;-66
2023/06/30 03:35:49;;;;;;;22.67;14.50;;;19.80;99.90;;;;;;5151947;27;20180;-66
2023/06/30 03:38:15;;;;;;;20.63;13.60;;;19.70;99.90;;;;;;5151905;27;20705;-67
2023/06/30 03:40:41;;;;;;;25.53;14.40;;;19.70;99.90;;;;;;5151732;27;20469;-66
2023/06/30 03:43:07;;;;;;;23.50;13.73;;;19.70;99.90;;;;;;5151832;27;20843;-66
2023/06/30 03:45:33;;;;;;;21.67;14.30;;;19.70;99.90;;;;;;5151826;27;20191;-67
2023/06/30 03:47:58;;;;;;;22.07;13.53;;;19.70;99.90;;;;;;5151746;27;20521;-67
2023/06/30 03:50:24;;;;;;;26.70;16.50;;;19.70;99.90;;;;;;5132944;27;20233;-68
2023/06/30 03:52:50;;;;;;;22.33;15.03;;;19.70;99.90;;;;;;5133194;27;20676;-67
2023/06/30 03:55:15;;;;;;;25.23;15.80;;;19.70;99.90;;;;;;5152280;27;20557;-67
2023/06/30 03:57:41;;;;;;;28.50;15.50;;;19.60;99.90;;;;;;5133798;27;20825;-68
2023/06/30 04:00:11;;;;;;;25.13;15.90;;;19.60;99.90;;;;;;5152269;27;20261;-67
2023/06/30 04:02:37;;;;;;;22.53;15.13;;;19.60;99.90;;;;;;5151480;27;20739;-67
2023/06/30 04:05:02;;;;;;;18.57;13.60;;;19.70;99.90;;;;;;5152217;27;20538;-68
2023/06/30 04:07:28;;;;;;;21.03;14.87;;;19.70;99.90;;;;;;5152378;27;20558;-67
2023/06/30 04:09:54;;;;;;;22.90;15.60;;;19.80;99.90;;;;;;5152126;27;20206;-68
2023/06/30 04:12:19;;;;;;;23.53;15.03;;;19.90;99.90;;;;;;5133725;27;20184;-67
2023/06/30 04:14:45;;;;;;;24.00;14.80;;;19.90;99.90;;;;;;5151706;27;20182;-67
2023/06/30 04:17:10;;;;;;;24.10;15.30;;;19.90;99.90;;;;;;5151452;27;20204;-68
2023/06/30 04:19:36;;;;;;;23.20;14.73;;;19.90;99.90;;;;;;5150575;27;20192;-67
2023/06/30 04:22:02;;;;;;;19.40;13.30;;;19.90;99.90;;;;;;5150271;27;20266;-66
2023/06/30 04:24:27;;;;;;;20.80;13.40;;;20.00;99.90;;;;;;5149521;27;20184;-65
2023/06/30 04:26:53;;;;;;;26.40;14.93;;;20.10;99.90;;;;;;5113435;27;20204;-67
2023/06/30 04:29:18;;;;;;;30.40;16.30;;;20.10;99.90;;;;;;5149527;27;20622;-67
2023/06/30 04:31:44;;;;;;;23.37;15.33;;;20.20;99.90;;;;;;5149606;27;20176;-67
2023/06/30 04:34:09;;;;;;;27.43;16.20;;;20.30;99.90;;;;;;5149561;27;20189;-66
2023/06/30 04:36:35;;;;;;;31.67;15.67;;;20.30;99.90;;;;;;5149671;27;20320;-67
2023/06/30 04:39:01;;;;;;;23.93;15.90;;;20.30;99.90;;;;;;5149717;27;20180;-68
2023/06/30 04:41:26;;;;;;;23.57;14.53;;;20.20;99.90;;;;;;5130941;27;20221;-68
2023/06/30 04:43:52;;;;;;;21.40;14.90;;;20.20;99.90;;;;;;5130997;27;20537;-68
2023/06/30 04:46:18;;;;;;;27.93;16.17;;;20.10;99.90;;;;;;5149490;27;20701;-67
2023/06/30 04:48:43;;;;;;;22.17;14.90;;;20.10;99.90;;;;;;5149374;27;20183;-67
2023/06/30 04:51:09;;;;;;;31.27;16.30;;;20.10;99.90;;;;;;5130675;27;20284;-67
2023/06/30 04:53:35;;;;;;;25.50;16.73;;;20.00;99.90;;;;;;5149379;27;20676;-67
2023/06/30 04:56:01;;;;;;;24.97;16.47;;;19.90;99.90;;;;;;5148991;27;20188;-67
2023/06/30 04:58:26;;;;;;;21.90;15.23;;;19.80;99.90;;;;;;5148638;27;20911;-66
2023/06/30 05:00:55;;;;;;;23.90;15.83;;;19.70;99.90;;;;;;5148585;27;20216;-67
2023/06/30 05:03:20;;;;;;;24.30;15.57;;;19.60;99.90;;;;;;5148555;27;20202;-67
2023/06/30 05:05:46;;;;;;;20.40;14.67;;;19.70;99.90;;;;;;5148571;27;20422;-67
2023/06/30 05:08:11;;;;;;;23.87;15.33;;;19.70;99.90;;;;;;5148848;27;20188;-68
2023/06/30 05:10:37;;;;;;;22.90;13.20;;;19.60;99.90;;;;;;5130211;27;20210;-67
2023/06/30 05:13:03;;;;;;;18.83;11.80;;;19.60;99.90;;;;;;5149970;27;20192;-67
2023/06/30 05:15:29;;;;;;;21.60;12.10;;;19.50;99.90;;;;;;5152563;27;20188;-66
2023/06/30 05:17:54;;;;;;;17.90;12.30;;;19.40;99.90;;;;;;5134127;27;20192;-66
2023/06/30 05:20:20;;;;;;;18.63;12.30;;;19.40;99.90;;;;;;5152146;27;20723;-66
2023/06/30 05:22:45;;;;;;;21.33;12.27;;;19.30;99.90;;;;;;5134270;27;20176;-66
2023/06/30 05:25:11;;;;;;;18.53;12.43;;;19.20;99.90;;;;;;5134131;27;20185;-66
2023/06/30 05:27:37;;;;;;;24.67;14.17;;;19.20;99.90;;;;;;5152706;27;20192;-66
2023/06/30 05:30:03;;;;;;;13.70;10.13;;;19.10;99.90;;;;;;5153076;27;20203;-67
2023/06/30 05:32:28;;;;;;;15.03;10.30;;;19.10;99.90;;;;;;5153000;27;20964;-66
2023/06/30 05:34:54;;;;;;;23.40;13.43;;;19.00;99.90;;;;;;5134410;27;20424;-69
2023/06/30 05:37:19;;;;;;;23.80;12.37;;;19.00;99.90;;;;;;5152953;27;20701;-68
2023/06/30 05:39:45;;;;;;;22.13;11.67;;;19.00;99.90;;;;;;5134179;27;20200;-68
2023/06/30 05:42:10;;;;;;;21.37;12.60;;;18.90;99.90;;;;;;5152612;27;20613;-67
2023/06/30 05:44:36;;;;;;;21.30;12.50;;;18.90;99.90;;;;;;5151876;27;20543;-67
2023/06/30 05:47:02;;;;;;;18.33;13.70;;;18.80;99.90;;;;;;5151836;27;20496;-68
2023/06/30 05:49:28;;;;;;;18.30;12.83;;;18.80;99.90;;;;;;5151704;27;20216;-68
2023/06/30 05:51:53;;;;;;;20.97;12.73;;;18.80;99.90;;;;;;5133296;27;20180;-68
2023/06/30 05:54:19;;;;;;;21.20;15.00;;;18.80;99.90;;;;;;5151610;27;20430;-67
2023/06/30 05:56:45;;;;;;;22.70;13.33;;;18.80;99.90;;;;;;5151725;27;20421;-68
2023/06/30 05:59:10;;;;;;;21.67;13.60;;;18.70;99.90;;;;;;5151598;27;20205;-68
2023/06/30 06:01:40;;;;;;;20.33;14.00;;;18.80;99.90;;;;;;5151320;27;20618;-68
2023/06/30 06:04:10;;;;;;;21.03;14.10;;;18.80;99.90;;;;;;5152178;27;20652;-68
2023/06/30 06:06:39;;;;;;;18.10;13.20;;;18.80;99.90;;;;;;5151848;27;20957;-68
2023/06/30 06:09:05;;;;;;;25.97;14.07;;;18.70;99.90;;;;;;5133723;27;20418;-68
2023/06/30 06:11:30;;;;;;;15.80;11.40;;;18.80;99.90;;;;;;5151628;27;21162;-68
2023/06/30 06:13:56;;;;;;;24.00;13.17;;;18.80;99.90;;;;;;5151661;27;20198;-68
2023/06/30 06:16:22;;;;;;;20.40;13.97;;;18.80;99.90;;;;;;5151435;27;20200;-68
2023/06/30 06:18:48;;;;;;;18.10;13.70;;;18.80;99.90;;;;;;5151544;27;20308;-68
2023/06/30 06:21:16;;;;;;;19.40;13.07;;;18.70;99.90;;;;;;5132667;27;20559;-68
2023/06/30 06:23:42;;;;;;;20.17;13.40;;;18.70;99.90;;;;;;5151172;27;21013;-67
2023/06/30 06:26:08;;;;;;;23.93;16.07;;;18.50;99.90;;;;;;5097014;27;20468;-68
2023/06/30 06:28:33;;;;;;;23.07;15.10;;;18.40;99.90;;;;;;5150972;27;20937;-67
2023/06/30 06:30:59;;;;;;;21.33;14.57;;;18.20;99.90;;;;;;5151167;27;20214;-68
2023/06/30 06:33:25;;;;;;;23.90;15.00;;;18.20;99.90;;;;;;5151766;27;20192;-68
2023/06/30 06:35:52;;;;;;;21.97;14.30;;;18.20;99.90;;;;;;5151206;27;20196;-67
2023/06/30 06:38:18;;;;;;;18.27;14.07;;;18.30;99.90;;;;;;5151099;27;20188;-66
2023/06/30 06:40:45;;;;;;;18.97;13.07;;;18.30;99.90;;;;;;5132266;27;20785;-67
2023/06/30 06:43:11;;;;;;;21.03;14.50;;;18.20;99.90;;;;;;5150768;27;20413;-68
2023/06/30 06:45:37;;;;;;;22.63;15.00;;;18.10;99.90;;;;;;5150723;27;20405;-68
2023/06/30 06:48:22;;;;;;;20.17;14.87;;;18.30;99.90;;;;;;5114898;27;20519;-67
2023/06/30 06:50:50;;;;;;;23.67;13.47;;;18.30;99.90;;;;;;5131841;27;20197;-68
2023/06/30 06:53:21;;;;;;;25.07;15.47;;;18.40;99.90;;;;;;5150695;27;20976;-69
2023/06/30 06:55:48;;;;;;;18.70;13.93;;;18.40;99.90;;;;;;5150410;27;20976;-69
2023/06/30 06:58:14;;;;;;;25.50;15.40;;;18.40;99.90;;;;;;5150458;27;20855;-69
2023/06/30 07:00:40;;;;;;;21.83;14.70;;;18.40;99.90;;;;;;5150074;27;20494;-68
2023/06/30 07:03:05;;;;;;;24.57;15.77;;;18.50;99.90;;;;;;5132016;27;20179;-69
2023/06/30 07:05:31;;;;;;;24.30;15.80;;;18.50;99.90;;;;;;5131703;27;20183;-69
2023/06/30 07:07:57;;;;;;;18.40;12.60;;;18.50;99.90;;;;;;5150207;27;20187;-68
2023/06/30 07:10:23;;;;;;;20.37;14.77;;;18.40;99.90;;;;;;5131439;27;20673;-69
2023/06/30 07:12:49;;;;;;;17.93;12.57;;;18.40;99.90;;;;;;5131639;27;20483;-69
2023/06/30 07:15:14;;;;;;;19.47;13.07;;;18.50;99.90;;;;;;5149985;27;20421;-67
2023/06/30 07:17:40;;;;;;;18.43;12.37;;;18.50;99.90;;;;;;5131264;27;20237;-68
2023/06/30 07:20:06;;;;;;;17.70;13.10;;;18.50;99.90;;;;;;5149970;27;20308;-68
2023/06/30 07:22:33;;;;;;;18.70;13.10;;;18.40;99.90;;;;;;5150164;27;20184;-67
2023/06/30 07:24:59;;;;;;;19.53;14.77;;;18.30;99.90;;;;;;5149833;27;21021;-67
2023/06/30 07:27:24;;;;;;;20.47;12.80;;;18.40;99.90;;;;;;5149390;27;20912;-69
2023/06/30 07:29:50;;;;;;;17.53;11.67;;;18.30;99.90;;;;;;5149766;27;20890;-68
2023/06/30 07:32:16;;;;;;;19.80;13.30;;;18.20;99.90;;;;;;5149916;27;20201;-67
2023/06/30 07:34:42;;;;;;;20.60;14.37;;;18.10;99.90;;;;;;5131289;27;20200;-68
2023/06/30 07:37:08;;;;;;;25.00;14.47;;;18.10;99.90;;;;;;5149789;27;20471;-67
2023/06/30 07:39:34;;;;;;;18.80;13.73;;;18.20;99.90;;;;;;5131048;27;20211;-67
2023/06/30 07:41:59;;;;;;;17.50;13.63;;;18.30;99.90;;;;;;5149504;27;20220;-68
2023/06/30 07:44:25;;;;;;;16.73;13.70;;;18.30;99.90;;;;;;5130656;27;20433;-66
2023/06/30 07:46:51;;;;;;;19.70;13.20;;;18.40;99.90;;;;;;5149437;27;20180;-68
2023/06/30 07:49:16;;;;;;;20.83;15.93;;;18.50;99.90;;;;;;5149443;27;20623;-66
2023/06/30 07:51:43;;;;;;;21.43;15.70;;;18.60;99.90;;;;;;5149374;27;20187;-67
2023/06/30 07:54:08;;;;;;;16.47;13.30;;;18.70;99.90;;;;;;5149226;27;20187;-66
2023/06/30 07:56:34;;;;;;;24.33;13.97;;;18.70;99.90;;;;;;5130934;27;20429;-67
2023/06/30 07:59:00;;;;;;;16.97;13.70;;;18.70;99.90;;;;;;5149435;27;20184;-69
2023/06/30 08:01:26;;;;;;;20.17;13.50;;;18.70;99.90;;;;;;5130372;27;20705;-69
2023/06/30 08:03:52;;;;;;;20.87;14.53;;;18.70;99.90;;;;;;5149289;27;20183;-68
2023/06/30 08:06:17;;;;;;;19.20;14.67;;;18.70;99.90;;;;;;5149471;27;20923;-67
2023/06/30 08:08:43;;;;;;;24.67;15.57;;;18.70;99.90;;;;;;5149592;27;20208;-67
2023/06/30 08:11:09;;;;;;;19.40;15.20;;;18.70;99.90;;;;;;5149372;27;20214;-66
2023/06/30 08:13:34;;;;;;;20.13;14.00;;;18.80;99.90;;;;;;5149417;27;20187;-67
2023/06/30 08:16:00;;;;;;;22.27;13.67;;;18.80;99.90;;;;;;5149632;27;20198;-67
2023/06/30 08:18:28;;;;;;;16.00;14.23;;;18.90;99.90;;;;;;5149841;27;20190;-68
2023/06/30 08:20:55;;;;;;;20.37;13.53;;;18.90;99.90;;;;;;5150176;27;20219;-67
2023/06/30 08:23:22;;;;;;;14.03;10.80;;;19.00;99.90;;;;;;5149873;27;20425;-67
2023/06/30 08:25:47;;;;;;;16.43;11.20;;;18.90;99.90;;;;;;5150208;27;20421;-67
2023/06/30 08:28:13;;;;;;;16.93;12.20;;;18.90;99.90;;;;;;5131753;27;20439;-67
2023/06/30 08:30:38;;;;;;;16.23;11.80;;;18.90;99.90;;;;;;5150130;27;20304;-68
2023/06/30 08:33:04;;;;;;;17.20;11.80;;;19.00;99.90;;;;;;5149568;27;20203;-69
2023/06/30 08:35:29;;;;;;;15.00;12.17;;;19.10;99.90;;;;;;5150208;27;20204;-69
2023/06/30 08:37:55;;;;;;;19.00;12.53;;;19.20;99.90;;;;;;5150141;27;20227;-68
2023/06/30 08:40:29;;;;;;;14.77;11.27;;;19.20;99.90;;;;;;5149170;27;20222;-69
2023/06/30 08:42:58;;;;;;;22.37;12.13;;;19.30;99.90;;;;;;5149109;27;20244;-67
2023/06/30 08:45:26;;;;;;;18.30;12.13;;;19.60;99.90;;;;;;5130442;27;20517;-66
2023/06/30 08:47:52;;;;;;;15.90;11.50;;;19.70;99.90;;;;;;5151620;27;20500;-67
2023/06/30 08:50:23;;;;;;;17.93;13.00;;;19.80;99.90;;;;;;5156152;27;20964;-67
2023/06/30 08:52:49;;;;;;;16.43;12.00;;;19.90;99.90;;;;;;5155770;27;20921;-68
2023/06/30 08:55:15;;;;;;;22.63;12.77;;;19.90;99.90;;;;;;5137015;27;20766;-67
2023/06/30 08:57:41;;;;;;;20.63;14.40;;;20.10;99.90;;;;;;5156584;27;20421;-67
2023/06/30 09:00:07;;;;;;;21.90;13.80;;;20.20;99.90;;;;;;5156254;27;20204;-67
2023/06/30 09:02:38;;;;;;;22.83;15.40;;;20.40;99.90;;;;;;5156526;27;20426;-67
2023/06/30 09:05:05;;;;;;;22.73;15.27;;;20.70;99.90;;;;;;5156216;27;20462;-67
2023/06/30 09:07:39;;;;;;;25.10;15.17;;;21.00;99.90;;;;;;5156267;27;20452;-67
2023/06/30 09:10:09;;;;;;;22.03;14.37;;;21.10;99.90;;;;;;5156206;27;20926;-67
2023/06/30 09:12:36;;;;;;;20.37;15.70;;;20.90;99.90;;;;;;5155982;27;20410;-67
2023/06/30 09:15:02;;;;;;;23.90;14.70;;;20.60;99.90;;;;;;5155623;27;20838;-67
2023/06/30 09:17:28;;;;;;;25.43;16.37;;;20.50;99.90;;;;;;5155660;27;20492;-67
2023/06/30 09:19:54;;;;;;;22.40;15.83;;;20.50;99.90;;;;;;5155665;27;20441;-67
2023/06/30 09:22:20;;;;;;;22.70;15.20;;;20.50;99.90;;;;;;5119695;27;20488;-67
2023/06/30 09:24:47;;;;;;;25.07;16.27;;;20.40;99.90;;;;;;5155644;27;20254;-67
2023/06/30 09:27:13;;;;;;;23.93;14.57;;;20.50;99.90;;;;;;5155771;27;20640;-67
2023/06/30 09:29:39;;;;;;;26.47;17.80;;;20.40;99.90;;;;;;5136410;27;20544;-67
2023/06/30 09:32:05;;;;;;;25.17;16.27;;;20.40;99.90;;;;;;5154950;27;20410;-66
2023/06/30 09:34:31;;;;;;;26.97;16.90;;;20.50;99.90;;;;;;5154938;27;20443;-66
2023/06/30 09:36:57;;;;;;;24.40;16.37;;;20.50;99.90;;;;;;5155085;27;20504;-67
2023/06/30 09:39:23;;;;;;;21.33;16.17;;;20.40;99.90;;;;;;5154892;27;20532;-67
2023/06/30 09:41:50;;;;;;;19.60;15.00;;;20.30;99.90;;;;;;5155394;27;20230;-66
2023/06/30 09:44:22;;;;;;;24.77;16.07;;;20.30;99.90;;;;;;5155592;27;20803;-68
2023/06/30 09:46:49;;;;;;;21.50;15.33;;;20.20;99.90;;;;;;5155413;27;20405;-67
2023/06/30 09:49:26;;;;;;;27.23;17.00;;;20.10;99.90;;;;;;5119022;27;20422;-66
2023/06/30 09:51:55;;;;;;;25.10;16.57;;;20.10;99.90;;;;;;5155028;27;20427;-67
2023/06/30 09:54:20;;;;;;;22.40;15.70;;;20.00;99.90;;;;;;5154934;27;20448;-67
2023/06/30 09:56:46;;;;;;;25.40;17.63;;;19.90;99.90;;;;;;5118925;27;20436;-68
2023/06/30 09:59:13;;;;;;;25.03;15.90;;;19.90;99.90;;;;;;5153772;27;20217;-67
2023/06/30 10:01:42;;;;;;;28.93;19.10;;;19.80;99.90;;;;;;5151794;27;20204;-67
2023/06/30 10:04:07;;;;;;;28.10;18.47;;;19.90;99.90;;;;;;5133362;27;20420;-67
2023/06/30 10:06:35;;;;;;;22.87;16.70;;;19.80;99.90;;;;;;5151916;27;20425;-66
2023/06/30 10:09:04;;;;;;;29.00;17.03;;;19.90;99.90;;;;;;5151635;27;20181;-66
2023/06/30 10:11:32;;;;;;;22.30;16.43;;;19.90;99.90;;;;;;5151359;27;20463;-67
2023/06/30 10:13:59;;;;;;;21.83;15.27;;;19.90;99.90;;;;;;5151233;27;20414;-66
2023/06/30 10:16:25;;;;;;;22.43;17.13;;;19.90;99.90;;;;;;5151266;27;20938;-65
2023/06/30 10:18:53;;;;;;;26.47;19.13;;;19.90;99.90;;;;;;5151737;27;20417;-66
2023/06/30 10:21:19;;;;;;;25.07;17.57;;;19.80;99.90;;;;;;5151899;27;20978;-66
2023/06/30 10:23:47;;;;;;;26.03;17.97;;;19.80;99.90;;;;;;5152060;27;20417;-66
2023/06/30 10:26:16;;;;;;;25.83;19.73;;;19.80;99.90;;;;;;5151849;27;20184;-65
2023/06/30 10:28:42;;;;;;;28.60;19.20;;;19.80;99.90;;;;;;5151827;27;20923;-66
2023/06/30 10:31:09;;;;;;;38.70;19.53;;;19.80;99.90;;;;;;5151818;27;20429;-66
2023/06/30 10:33:35;;;;;;;28.20;19.10;;;19.80;99.90;;;;;;5151786;27;20788;-68
2023/06/30 10:36:01;;;;;;;26.80;17.90;;;19.70;99.90;;;;;;5151580;27;20480;-68
2023/06/30 10:38:27;;;;;;;27.40;18.00;;;19.70;99.90;;;;;;5151653;27;20504;-68
2023/06/30 10:41:16;;;;;;;25.93;18.43;;;19.80;99.90;;;;;;5132948;27;20915;-68
2023/06/30 10:44:08;;;;;;;27.63;19.27;;;19.80;99.90;;;;;;5151056;27;20486;-69
2023/06/30 10:46:41;;;;;;;28.00;18.67;;;19.80;99.90;;;;;;5151170;27;20926;-67
2023/06/30 10:49:07;;;;;;;27.80;17.87;;;19.80;99.90;;;;;;5151335;27;20499;-67
2023/06/30 10:51:37;;;;;;;23.77;18.03;;;19.80;99.90;;;;;;5151386;27;20456;-67
2023/06/30 10:54:03;;;;;;;26.23;18.50;;;19.90;99.90;;;;;;5131834;27;20448;-67
2023/06/30 10:56:29;;;;;;;27.60;18.53;;;19.90;99.90;;;;;;5150365;27;20439;-67
2023/06/30 10:59:03;;;;;;;27.40;16.70;;;19.90;99.90;;;;;;5150257;27;20421;-67
2023/06/30 11:01:28;;;;;;;32.33;18.60;;;20.00;99.90;;;;;;5150167;27;21181;-66
2023/06/30 11:03:57;;;;;;;31.93;19.63;;;20.00;99.90;;;;;;5150120;27;20845;-66
2023/06/30 11:06:23;;;;;;;26.47;18.73;;;20.00;99.90;;;;;;5150254;27;20698;-67
2023/06/30 11:09:03;;;;;;;29.90;18.60;;;19.90;99.90;;;;;;5150343;27;20458;-68
2023/06/30 11:11:29;;;;;;;25.40;16.90;;;19.80;99.90;;;;;;5149407;27;20875;-69
2023/06/30 11:14:05;;;;;;;27.87;18.10;;;19.80;99.90;;;;;;5149988;27;20420;-69
2023/06/30 11:17:00;;;;;;;26.10;18.57;;;19.80;99.90;;;;;;5150203;27;20405;-67
2023/06/30 11:19:26;;;;;;;26.73;18.63;;;19.80;99.90;;;;;;5150042;27;20425;-67
2023/06/30 11:22:21;;;;;;;31.00;20.83;;;19.70;99.90;;;;;;5149989;27;20465;-67
2023/06/30 11:24:47;;;;;;;32.13;20.20;;;19.70;99.90;;;;;;5149951;27;20455;-66
2023/06/30 11:27:14;;;;;;;26.53;18.53;;;19.70;99.90;;;;;;5149869;27;20543;-66
2023/06/30 11:29:40;;;;;;;29.33;18.87;;;19.60;99.90;;;;;;5149935;27;20461;-66
2023/06/30 11:32:06;;;;;;;25.03;17.93;;;19.60;99.90;;;;;;5149781;27;20425;-66
2023/06/30 11:34:33;;;;;;;26.03;17.73;;;19.70;99.90;;;;;;5131170;27;20422;-66
2023/06/30 11:37:03;;;;;;;23.97;17.60;;;19.70;99.90;;;;;;5149691;27;20417;-66
2023/06/30 11:39:29;;;;;;;22.67;16.00;;;19.60;99.90;;;;;;5149330;27;20424;-66
2023/06/30 11:41:54;;;;;;;24.07;17.00;;;19.60;99.90;;;;;;5149476;27;20463;-67
2023/06/30 11:44:20;;;;;;;25.60;16.33;;;19.60;99.90;;;;;;5149517;27;20622;-67
2023/06/30 11:46:46;;;;;;;22.43;16.27;;;19.70;99.90;;;;;;5130586;27;20195;-66
2023/06/30 11:49:13;;;;;;;25.63;16.50;;;19.60;99.90;;;;;;5149302;27;20180;-66
2023/06/30 11:51:38;;;;;;;18.90;14.27;;;19.70;99.90;;;;;;5149653;27;20438;-66
2023/06/30 11:54:05;;;;;;;21.90;16.00;;;19.80;99.90;;;;;;5149612;27;20418;-66
2023/06/30 11:56:31;;;;;;;22.17;14.27;;;19.90;99.90;;;;;;5149635;27;20544;-66
2023/06/30 11:58:56;;;;;;;17.47;13.30;;;19.90;99.90;;;;;;5149524;27;20432;-65
2023/06/30 12:01:23;;;;;;;18.00;14.13;;;20.00;99.90;;;;;;5149411;27;20307;-66
2023/06/30 12:03:59;;;;;;;19.77;14.13;;;20.00;99.90;;;;;;5150186;27;20230;-66
2023/06/30 12:06:26;;;;;;;20.97;12.80;;;20.00;99.90;;;;;;5149711;27;20458;-66
2023/06/30 12:08:52;;;;;;;17.97;13.40;;;19.90;99.90;;;;;;5149956;27;20978;-66
2023/06/30 12:11:17;;;;;;;27.30;15.57;;;19.90;99.90;;;;;;5131364;27;20448;-65
2023/06/30 12:13:44;;;;;;;17.93;12.70;;;19.90;99.90;;;;;;5149539;27;20199;-65
2023/06/30 12:16:10;;;;;;;16.67;12.83;;;19.90;99.90;;;;;;5149366;27;20993;-67
2023/06/30 12:18:37;;;;;;;16.27;12.73;;;19.90;99.90;;;;;;5149152;27;20437;-67
2023/06/30 12:21:11;;;;;;;20.33;14.50;;;19.80;99.90;;;;;;5130148;27;20657;-66
2023/06/30 12:23:44;;;;;;;25.37;14.43;;;19.80;99.90;;;;;;5148554;27;20894;-65
2023/06/30 12:26:11;;;;;;;19.50;13.10;;;19.80;99.90;;;;;;5149408;27;20424;-66